createdAt,value
2018-10-11T00:00:19.308Z,15.43
2018-10-11T00:01:19.317Z,15.44
2018-10-11T00:02:19.320Z,15.52
2018-10-11T00:03:19.341Z,15.42
2018-10-11T00:04:19.340Z,15.39
2018-10-11T00:05:19.339Z,15.42
2018-10-11T00:06:19.098Z,15.4
2018-10-11T00:07:19.353Z,15.44
2018-10-11T00:08:19.101Z,15.47
2018-10-11T00:09:19.361Z,15.49
2018-10-11T00:10:19.112Z,15.52
2018-10-11T00:11:19.115Z,15.54
2018-10-11T00:12:19.386Z,15.47
2018-10-11T00:13:19.441Z,15.54
2018-10-11T00:14:19.135Z,15.47
2018-10-11T00:15:19.403Z,15.43
2018-10-11T00:16:19.404Z,15.37
2018-10-11T00:17:19.152Z,15.44
2018-10-11T00:18:19.522Z,15.44
2018-10-11T00:19:19.432Z,15.43
2018-10-11T00:20:19.443Z,15.46
2018-10-11T00:21:19.188Z,15.47
2018-10-11T00:22:19.468Z,15.4
2018-10-11T00:23:19.502Z,15.4
2018-10-11T00:24:19.457Z,15.35
2018-10-11T00:25:19.475Z,15.37
2018-10-11T00:26:19.475Z,15.35
2018-10-11T00:27:19.466Z,15.24
2018-10-11T00:28:18.952Z,15.19
2018-10-11T00:29:19.217Z,15.25
2018-10-11T00:30:19.229Z,15.17
2018-10-11T00:31:19.497Z,15.18
2018-10-11T00:32:19.496Z,15.19
2018-10-11T00:33:19.706Z,15.17
2018-10-11T00:34:19.507Z,15.18
2018-10-11T00:35:18.994Z,15.09
2018-10-11T00:36:19.517Z,15.07
2018-10-11T00:37:19.522Z,15.09
2018-10-11T00:38:19.579Z,15.04
2018-10-11T00:39:19.276Z,15.03
2018-10-11T00:40:19.284Z,15.04
2018-10-11T00:41:19.551Z,15.03
2018-10-11T00:42:19.308Z,14.97
2018-10-11T00:43:19.561Z,14.91
2018-10-11T00:44:19.309Z,14.96
2018-10-11T00:45:19.317Z,15.02
2018-10-11T00:46:19.336Z,15.03
2018-10-11T00:47:19.592Z,14.96
2018-10-11T00:48:19.335Z,14.86
2018-10-11T00:49:19.377Z,14.97
2018-10-11T00:50:19.606Z,14.79
2018-10-11T00:51:19.098Z,14.84
2018-10-11T00:52:19.621Z,14.85
2018-10-11T00:53:19.673Z,14.86
2018-10-11T00:54:19.632Z,14.82
2018-10-11T00:55:19.636Z,14.81
2018-10-11T00:56:19.643Z,14.79
2018-10-11T00:57:19.376Z,14.78
2018-10-11T00:58:19.638Z,14.78
2018-10-11T00:59:19.641Z,14.77
2018-10-11T01:00:19.650Z,14.7
2018-10-11T01:01:19.656Z,14.79
2018-10-11T01:02:19.676Z,14.79
2018-10-11T01:03:19.685Z,14.84
2018-10-11T01:04:19.428Z,14.84
2018-10-11T01:05:19.696Z,14.73
2018-10-11T01:06:19.699Z,14.73
2018-10-11T01:07:19.713Z,14.78
2018-10-11T01:08:19.762Z,14.78
2018-10-11T01:09:20.015Z,14.72
2018-10-11T01:10:19.728Z,14.73
2018-10-11T01:11:19.725Z,14.82
2018-10-11T01:12:19.735Z,14.81
2018-10-11T01:13:19.743Z,14.82
2018-10-11T01:14:19.484Z,14.79
2018-10-11T01:15:19.488Z,14.78
2018-10-11T01:16:19.769Z,14.6
2018-10-11T01:17:19.500Z,14.63
2018-10-11T01:18:19.499Z,14.62
2018-10-11T01:19:19.769Z,14.62
2018-10-11T01:20:19.768Z,14.58
2018-10-11T01:21:19.513Z,14.62
2018-10-11T01:22:19.790Z,14.55
2018-10-11T01:23:19.995Z,14.47
2018-10-11T01:24:19.814Z,14.47
2018-10-11T01:25:19.300Z,14.41
2018-10-11T01:26:19.807Z,14.41
2018-10-11T01:27:19.817Z,14.36
2018-10-11T01:28:19.821Z,14.32
2018-10-11T01:29:19.806Z,14.36
2018-10-11T01:30:19.818Z,14.37
2018-10-11T01:31:19.841Z,14.29
2018-10-11T01:32:19.855Z,14.32
2018-10-11T01:33:19.847Z,14.28
2018-10-11T01:34:19.594Z,14.26
2018-10-11T01:35:19.862Z,14.25
2018-10-11T01:36:19.861Z,14.28
2018-10-11T01:37:19.886Z,14.17
2018-10-11T01:38:19.925Z,14.23
2018-10-11T01:39:19.888Z,14.26
2018-10-11T01:40:19.891Z,14.22
2018-10-11T01:41:19.899Z,14.2
2018-10-11T01:42:19.648Z,14.12
2018-10-11T01:43:19.907Z,14.08
2018-10-11T01:44:19.646Z,14.15
2018-10-11T01:45:19.925Z,14.03
2018-10-11T01:46:19.927Z,14.11
2018-10-11T01:47:19.924Z,14.11
2018-10-11T01:48:19.929Z,14.07
2018-10-11T01:49:19.661Z,14.05
2018-10-11T01:50:19.667Z,14.07
2018-10-11T01:51:19.934Z,14.08
2018-10-11T01:52:19.681Z,14.07
2018-10-11T01:53:20.091Z,14.12
2018-10-11T01:54:19.686Z,14
2018-10-11T01:55:19.697Z,14.1
2018-10-11T01:56:19.702Z,14.11
2018-10-11T01:57:19.976Z,14.05
2018-10-11T01:58:19.973Z,14.1
2018-10-11T01:59:20.003Z,14.07
2018-10-11T02:00:19.471Z,14.12
2018-10-11T02:01:19.999Z,14.11
2018-10-11T02:02:20.004Z,14.08
2018-10-11T02:03:20.013Z,14.04
2018-10-11T02:04:20.015Z,14.07
2018-10-11T02:05:20.020Z,14.05
2018-10-11T02:06:20.025Z,14.15
2018-10-11T02:07:20.025Z,14.18
2018-10-11T02:08:20.087Z,14.14
2018-10-11T02:09:19.885Z,14.18
2018-10-11T02:10:20.043Z,14.18
2018-10-11T02:11:20.064Z,14.08
2018-10-11T02:12:19.793Z,14.05
2018-10-11T02:13:20.059Z,14.22
2018-10-11T02:14:20.063Z,14.2
2018-10-11T02:15:20.079Z,14.2
2018-10-11T02:16:20.081Z,14.22
2018-10-11T02:17:20.080Z,14.26
2018-10-11T02:18:20.092Z,14.22
2018-10-11T02:19:19.830Z,14.22
2018-10-11T02:20:20.098Z,14.23
2018-10-11T02:21:19.583Z,14.26
2018-10-11T02:22:20.115Z,14.2
2018-10-11T02:23:19.902Z,14.2
2018-10-11T02:24:20.116Z,14.15
2018-10-11T02:25:19.601Z,14.2
2018-10-11T02:26:20.125Z,14.25
2018-10-11T02:27:20.139Z,14.18
2018-10-11T02:28:20.145Z,14.1
2018-10-11T02:29:20.141Z,14.17
2018-10-11T02:30:19.626Z,14.17
2018-10-11T02:31:20.153Z,14.07
2018-10-11T02:32:19.895Z,14.1
2018-10-11T02:33:20.180Z,14.1
2018-10-11T02:34:20.167Z,14.11
2018-10-11T02:35:19.919Z,14.11
2018-10-11T02:36:20.176Z,13.99
2018-10-11T02:37:20.186Z,14.05
2018-10-11T02:38:20.252Z,14.07
2018-10-11T02:39:19.924Z,14.12
2018-10-11T02:40:20.200Z,14.2
2018-10-11T02:41:20.201Z,14.14
2018-10-11T02:42:19.956Z,14.2
2018-10-11T02:43:20.216Z,14.23
2018-10-11T02:44:20.222Z,14.26
2018-10-11T02:45:20.239Z,14.32
2018-10-11T02:46:19.977Z,14.36
2018-10-11T02:47:19.977Z,14.32
2018-10-11T02:48:20.241Z,14.35
2018-10-11T02:49:20.249Z,14.4
2018-10-11T02:50:20.257Z,14.33
2018-10-11T02:51:20.266Z,14.33
2018-10-11T02:52:20.264Z,14.44
2018-10-11T02:53:20.324Z,14.33
2018-10-11T02:54:20.273Z,14.43
2018-10-11T02:55:20.277Z,14.43
2018-10-11T02:56:20.298Z,14.35
2018-10-11T02:57:20.030Z,14.44
2018-10-11T02:58:20.292Z,14.48
2018-10-11T02:59:20.303Z,14.51
2018-10-11T03:00:20.047Z,14.54
2018-10-11T03:01:20.050Z,14.63
2018-10-11T03:02:20.068Z,14.6
2018-10-11T03:03:20.368Z,14.51
2018-10-11T03:04:20.327Z,14.62
2018-10-11T03:05:20.328Z,14.59
2018-10-11T03:06:20.333Z,14.6
2018-10-11T03:07:20.348Z,14.62
2018-10-11T03:08:20.398Z,14.53
2018-10-11T03:09:20.351Z,14.66
2018-10-11T03:10:20.101Z,14.63
2018-10-11T03:11:20.098Z,14.54
2018-10-11T03:12:20.371Z,14.58
2018-10-11T03:13:20.372Z,14.62
2018-10-11T03:14:20.389Z,14.63
2018-10-11T03:15:20.392Z,14.6
2018-10-11T03:16:20.130Z,14.66
2018-10-11T03:17:20.396Z,14.59
2018-10-11T03:18:20.140Z,14.63
2018-10-11T03:19:20.415Z,14.65
2018-10-11T03:20:20.408Z,14.65
2018-10-11T03:21:20.424Z,14.59
2018-10-11T03:22:20.430Z,14.63
2018-10-11T03:23:20.470Z,14.6
2018-10-11T03:24:20.305Z,14.6
2018-10-11T03:25:20.432Z,14.63
2018-10-11T03:26:20.435Z,14.65
2018-10-11T03:27:20.441Z,14.69
2018-10-11T03:28:20.445Z,14.62
2018-10-11T03:29:20.191Z,14.62
2018-10-11T03:30:20.469Z,14.69
2018-10-11T03:31:20.226Z,14.73
2018-10-11T03:32:20.237Z,14.72
2018-10-11T03:33:20.550Z,14.72
2018-10-11T03:34:20.497Z,14.63
2018-10-11T03:35:20.491Z,14.72
2018-10-11T03:36:20.502Z,14.68
2018-10-11T03:37:20.506Z,14.63
2018-10-11T03:38:20.564Z,14.62
2018-10-11T03:39:20.513Z,14.62
2018-10-11T03:40:20.515Z,14.59
2018-10-11T03:41:20.258Z,14.59
2018-10-11T03:42:20.262Z,14.63
2018-10-11T03:43:20.539Z,14.6
2018-10-11T03:44:20.546Z,14.58
2018-10-11T03:45:20.549Z,14.55
2018-10-11T03:46:20.579Z,14.58
2018-10-11T03:47:20.569Z,14.58
2018-10-11T03:48:20.568Z,14.55
2018-10-11T03:49:20.571Z,14.58
2018-10-11T03:50:20.054Z,14.53
2018-10-11T03:51:20.583Z,14.47
2018-10-11T03:52:20.590Z,14.33
2018-10-11T03:53:20.645Z,14.35
2018-10-11T03:54:20.598Z,14.32
2018-10-11T03:55:20.344Z,14.36
2018-10-11T03:56:20.611Z,14.33
2018-10-11T03:57:20.614Z,14.33
2018-10-11T03:58:20.619Z,14.35
2018-10-11T03:59:20.363Z,14.3
2018-10-11T04:00:20.632Z,14.25
2018-10-11T04:01:20.629Z,14.22
2018-10-11T04:02:20.374Z,14.22
2018-10-11T04:03:20.617Z,14.22
2018-10-11T04:04:20.649Z,14.25
2018-10-11T04:05:20.630Z,14.18
2018-10-11T04:06:20.644Z,14.17
2018-10-11T04:07:20.657Z,14.1
2018-10-11T04:08:20.659Z,14.14
2018-10-11T04:09:20.663Z,14.1
2018-10-11T04:10:20.643Z,14.12
2018-10-11T04:11:20.115Z,14.11
2018-10-11T04:12:20.628Z,14.03
2018-10-11T04:13:20.636Z,14.07
2018-10-11T04:14:20.640Z,14.08
2018-10-11T04:15:20.647Z,14.05
2018-10-11T04:16:20.656Z,13.97
2018-10-11T04:17:20.419Z,14.03
2018-10-11T04:18:20.510Z,14.03
2018-10-11T04:19:20.667Z,13.97
2018-10-11T04:20:20.421Z,13.92
2018-10-11T04:21:20.683Z,13.86
2018-10-11T04:22:20.436Z,13.83
2018-10-11T04:23:20.741Z,13.83
2018-10-11T04:24:20.694Z,13.85
2018-10-11T04:25:20.450Z,13.86
2018-10-11T04:26:20.701Z,13.81
2018-10-11T04:27:20.710Z,13.87
2018-10-11T04:28:20.713Z,13.9
2018-10-11T04:29:20.724Z,13.87
2018-10-11T04:30:20.471Z,13.78
2018-10-11T04:31:20.474Z,13.7
2018-10-11T04:32:20.482Z,13.74
2018-10-11T04:33:20.483Z,13.75
2018-10-11T04:34:20.741Z,13.78
2018-10-11T04:35:20.507Z,13.72
2018-10-11T04:36:20.246Z,13.71
2018-10-11T04:37:20.506Z,13.68
2018-10-11T04:38:20.307Z,13.71
2018-10-11T04:39:20.261Z,13.71
2018-10-11T04:40:20.774Z,13.6
2018-10-11T04:41:20.537Z,13.6
2018-10-11T04:42:20.529Z,13.52
2018-10-11T04:43:21.473Z,13.62
2018-10-11T04:44:20.790Z,13.54
2018-10-11T04:45:20.548Z,13.44
2018-10-11T04:46:20.801Z,13.54
2018-10-11T04:47:20.814Z,13.53
2018-10-11T04:48:20.817Z,13.59
2018-10-11T04:49:20.556Z,13.52
2018-10-11T04:50:20.810Z,13.47
2018-10-11T04:51:20.815Z,13.47
2018-10-11T04:52:20.570Z,13.49
2018-10-11T04:53:20.825Z,13.44
2018-10-11T04:54:20.329Z,13.42
2018-10-11T04:55:20.835Z,13.52
2018-10-11T04:56:20.586Z,13.47
2018-10-11T04:57:20.840Z,13.42
2018-10-11T04:58:20.903Z,13.44
2018-10-11T04:59:20.855Z,13.5
2018-10-11T05:00:20.868Z,13.49
2018-10-11T05:01:20.862Z,13.47
2018-10-11T05:02:20.619Z,13.49
2018-10-11T05:03:20.976Z,13.47
2018-10-11T05:04:20.628Z,13.5
2018-10-11T05:05:20.719Z,13.37
2018-10-11T05:06:20.896Z,13.38
2018-10-11T05:07:20.893Z,13.35
2018-10-11T05:08:20.898Z,13.39
2018-10-11T05:09:20.902Z,13.44
2018-10-11T05:10:20.907Z,13.5
2018-10-11T05:11:20.653Z,13.47
2018-10-11T05:12:20.915Z,13.5
2018-10-11T05:13:20.717Z,13.56
2018-10-11T05:14:20.926Z,13.5
2018-10-11T05:15:20.927Z,13.49
2018-10-11T05:16:20.690Z,13.46
2018-10-11T05:17:21.104Z,13.44
2018-10-11T05:18:20.955Z,13.39
2018-10-11T05:19:20.958Z,13.39
2018-10-11T05:20:20.709Z,13.38
2018-10-11T05:21:21.174Z,13.3
2018-10-11T05:22:20.965Z,13.44
2018-10-11T05:23:20.740Z,13.33
2018-10-11T05:24:20.972Z,13.31
2018-10-11T05:25:20.722Z,13.3
2018-10-11T05:26:21.196Z,13.28
2018-10-11T05:27:20.731Z,13.37
2018-10-11T05:28:20.787Z,13.28
2018-10-11T05:29:20.992Z,13.37
2018-10-11T05:30:21.023Z,13.35
2018-10-11T05:31:21.022Z,13.37
2018-10-11T05:32:21.403Z,13.33
2018-10-11T05:33:21.026Z,13.39
2018-10-11T05:34:20.785Z,13.5
2018-10-11T05:35:21.038Z,13.41
2018-10-11T05:36:20.813Z,13.5
2018-10-11T05:37:21.045Z,13.47
2018-10-11T05:38:21.092Z,13.57
2018-10-11T05:39:21.075Z,13.52
2018-10-11T05:40:21.058Z,13.52
2018-10-11T05:41:21.067Z,13.41
2018-10-11T05:42:21.066Z,13.49
2018-10-11T05:43:21.119Z,13.47
2018-10-11T05:44:21.252Z,13.53
2018-10-11T05:45:20.814Z,13.54
2018-10-11T05:46:21.066Z,13.57
2018-10-11T05:47:20.825Z,13.52
2018-10-11T05:48:21.091Z,13.53
2018-10-11T05:49:20.835Z,13.57
2018-10-11T05:50:21.041Z,13.62
2018-10-11T05:51:21.107Z,13.63
2018-10-11T05:52:21.112Z,13.72
2018-10-11T05:53:21.115Z,13.7
2018-10-11T05:54:20.875Z,13.67
2018-10-11T05:55:20.869Z,13.62
2018-10-11T05:56:20.877Z,13.62
2018-10-11T05:57:21.135Z,13.62
2018-10-11T05:58:20.935Z,13.72
2018-10-11T05:59:21.143Z,13.67
2018-10-11T06:00:21.147Z,13.72
2018-10-11T06:01:20.904Z,13.74
2018-10-11T06:02:21.155Z,13.74
2018-10-11T06:03:21.185Z,13.74
2018-10-11T06:04:21.549Z,13.71
2018-10-11T06:05:21.177Z,13.63
2018-10-11T06:06:21.243Z,13.67
2018-10-11T06:07:21.184Z,13.7
2018-10-11T06:08:21.237Z,13.78
2018-10-11T06:09:21.204Z,13.71
2018-10-11T06:10:21.196Z,13.68
2018-10-11T06:11:20.695Z,13.74
2018-10-11T06:12:21.211Z,13.77
2018-10-11T06:13:21.269Z,13.71
2018-10-11T06:14:20.967Z,13.79
2018-10-11T06:15:21.223Z,13.77
2018-10-11T06:16:20.976Z,13.9
2018-10-11T06:17:20.985Z,13.85
2018-10-11T06:18:21.240Z,13.9
2018-10-11T06:19:20.990Z,13.81
2018-10-11T06:20:20.740Z,13.87
2018-10-11T06:21:21.253Z,13.9
2018-10-11T06:22:21.009Z,13.97
2018-10-11T06:23:21.259Z,14
2018-10-11T06:24:21.276Z,14.05
2018-10-11T06:25:21.270Z,14.03
2018-10-11T06:26:21.279Z,14.04
2018-10-11T06:27:21.272Z,14.07
2018-10-11T06:28:21.331Z,14.04
2018-10-11T06:29:21.287Z,14.07
2018-10-11T06:30:21.594Z,14.1
2018-10-11T06:31:21.042Z,14.05
2018-10-11T06:32:21.054Z,14.08
2018-10-11T06:33:21.316Z,14.18
2018-10-11T06:34:21.317Z,14.18
2018-10-11T06:35:21.071Z,14.2
2018-10-11T06:36:21.299Z,14.23
2018-10-11T06:37:21.336Z,14.29
2018-10-11T06:38:21.340Z,14.32
2018-10-11T06:39:21.093Z,14.32
2018-10-11T06:40:21.365Z,14.35
2018-10-11T06:41:21.098Z,14.35
2018-10-11T06:42:21.663Z,14.45
2018-10-11T06:43:21.415Z,14.47
2018-10-11T06:44:21.121Z,14.54
2018-10-11T06:45:21.378Z,14.59
2018-10-11T06:46:21.386Z,14.6
2018-10-11T06:47:21.371Z,14.6
2018-10-11T06:48:21.382Z,14.6
2018-10-11T06:49:21.132Z,14.73
2018-10-11T06:50:20.922Z,14.81
2018-10-11T06:51:21.142Z,14.73
2018-10-11T06:52:21.404Z,14.85
2018-10-11T06:53:21.157Z,14.86
2018-10-11T06:54:21.405Z,14.91
2018-10-11T06:55:21.483Z,14.94
2018-10-11T06:56:21.442Z,14.96
2018-10-11T06:57:21.425Z,14.97
2018-10-11T06:58:21.485Z,15
2018-10-11T06:59:21.450Z,15.07
2018-10-11T07:00:21.447Z,15.02
2018-10-11T07:01:21.207Z,15.19
2018-10-11T07:02:21.466Z,15.22
2018-10-11T07:03:21.474Z,15.29
2018-10-11T07:04:21.479Z,15.25
2018-10-11T07:05:21.492Z,15.37
2018-10-11T07:06:21.240Z,15.52
2018-10-11T07:07:21.376Z,15.47
2018-10-11T07:08:21.269Z,15.55
2018-10-11T07:09:21.507Z,15.54
2018-10-11T07:10:21.519Z,15.7
2018-10-11T07:11:21.532Z,15.82
2018-10-11T07:12:21.534Z,15.82
2018-10-11T07:13:21.077Z,15.84
2018-10-11T07:14:21.544Z,15.88
2018-10-11T07:15:21.298Z,15.88
2018-10-11T07:16:21.553Z,15.9
2018-10-11T07:17:21.300Z,15.91
2018-10-11T07:18:21.666Z,16
2018-10-11T07:19:21.379Z,16.04
2018-10-11T07:20:21.570Z,16.1
2018-10-11T07:21:21.581Z,16.09
2018-10-11T07:22:21.332Z,16.15
2018-10-11T07:23:21.337Z,16.23
2018-10-11T07:24:21.605Z,16.21
2018-10-11T07:25:21.363Z,16.35
2018-10-11T07:26:21.609Z,16.41
2018-10-11T07:27:21.366Z,16.47
2018-10-11T07:28:21.673Z,16.47
2018-10-11T07:29:21.377Z,16.6
2018-10-11T07:30:21.649Z,16.6
2018-10-11T07:31:21.644Z,16.71
2018-10-11T07:32:21.404Z,16.71
2018-10-11T07:33:21.659Z,16.72
2018-10-11T07:34:21.660Z,16.75
2018-10-11T07:35:21.847Z,16.78
2018-10-11T07:36:21.677Z,16.81
2018-10-11T07:37:21.691Z,16.89
2018-10-11T07:38:21.436Z,16.97
2018-10-11T07:39:21.442Z,17.01
2018-10-11T07:40:21.971Z,16.97
2018-10-11T07:41:21.701Z,17.12
2018-10-11T07:42:21.514Z,17.23
2018-10-11T07:43:21.517Z,17.22
2018-10-11T07:44:21.726Z,17.26
2018-10-11T07:45:21.735Z,17.34
2018-10-11T07:46:21.755Z,17.41
2018-10-11T07:47:21.887Z,17.38
2018-10-11T07:48:21.761Z,17.51
2018-10-11T07:49:21.767Z,17.51
2018-10-11T07:50:21.776Z,17.59
2018-10-11T07:51:21.521Z,17.68
2018-10-11T07:52:21.778Z,17.68
2018-10-11T07:53:21.786Z,17.86
2018-10-11T07:54:21.797Z,17.8
2018-10-11T07:55:21.851Z,17.98
2018-10-11T07:56:21.580Z,18
2018-10-11T07:57:21.819Z,18.04
2018-10-11T07:58:21.884Z,18.18
2018-10-11T07:59:21.587Z,18.2
2018-10-11T08:00:21.596Z,18.22
2018-10-11T08:01:22.265Z,18.25
2018-10-11T08:02:21.840Z,18.34
2018-10-11T08:03:21.676Z,18.4
2018-10-11T08:04:21.600Z,18.4
2018-10-11T08:05:21.859Z,18.53
2018-10-11T08:06:21.901Z,18.58
2018-10-11T08:07:22.315Z,18.74
2018-10-11T08:08:21.690Z,18.75
2018-10-11T08:09:21.654Z,18.81
2018-10-11T08:10:22.137Z,18.93
2018-10-11T08:11:22.473Z,18.96
2018-10-11T08:12:21.678Z,19.07
2018-10-11T08:13:21.692Z,19.14
2018-10-11T08:14:21.953Z,19.04
2018-10-11T08:15:21.958Z,19.18
2018-10-11T08:16:22.253Z,19.31
2018-10-11T08:17:22.720Z,19.3
2018-10-11T08:18:22.031Z,19.37
2018-10-11T08:19:23.232Z,19.51
2018-10-11T08:20:22.179Z,19.59
2018-10-11T08:21:22.008Z,19.56
2018-10-11T08:22:22.017Z,19.73
2018-10-11T08:23:21.788Z,19.76
2018-10-11T08:24:21.819Z,19.77
2018-10-11T08:25:22.457Z,19.76
2018-10-11T08:26:23.138Z,19.74
2018-10-11T08:27:22.349Z,19.92
2018-10-11T08:28:21.814Z,19.99
2018-10-11T08:29:22.068Z,19.92
2018-10-11T08:30:22.076Z,20
2018-10-11T08:31:22.092Z,19.99
2018-10-11T08:32:22.609Z,20.14
2018-10-11T08:33:22.118Z,20.18
2018-10-11T08:34:22.113Z,20.21
2018-10-11T08:35:21.870Z,20.22
2018-10-11T08:36:22.138Z,20.36
2018-10-11T08:37:22.142Z,20.36
2018-10-11T08:38:22.406Z,20.47
2018-10-11T08:39:22.163Z,20.51
2018-10-11T08:40:22.231Z,20.62
2018-10-11T08:41:22.180Z,20.66
2018-10-11T08:42:22.188Z,20.66
2018-10-11T08:43:22.304Z,20.78
2018-10-11T08:44:22.362Z,20.77
2018-10-11T08:45:22.211Z,20.82
2018-10-11T08:46:22.216Z,20.84
2018-10-11T08:47:22.226Z,20.95
2018-10-11T08:48:22.033Z,20.88
2018-10-11T08:49:22.119Z,21.03
2018-10-11T08:50:22.338Z,21.03
2018-10-11T08:51:22.261Z,21.06
2018-10-11T08:52:22.269Z,21.21
2018-10-11T08:53:22.336Z,21.32
2018-10-11T08:54:22.296Z,21.37
2018-10-11T08:55:22.366Z,21.39
2018-10-11T08:56:22.321Z,21.42
2018-10-11T08:57:22.354Z,21.54
2018-10-11T08:58:22.383Z,21.52
2018-10-11T08:59:22.890Z,21.6
2018-10-11T09:00:22.103Z,21.72
2018-10-11T09:01:22.359Z,21.69
2018-10-11T09:02:22.122Z,21.75
2018-10-11T09:03:22.814Z,21.79
2018-10-11T09:04:22.525Z,21.85
2018-10-11T09:05:22.191Z,21.95
2018-10-11T09:06:22.158Z,21.99
2018-10-11T09:07:22.170Z,22.06
2018-10-11T09:08:22.573Z,22.15
2018-10-11T09:09:22.548Z,22.14
2018-10-11T09:10:22.443Z,22.14
2018-10-11T09:11:22.622Z,22.25
2018-10-11T09:12:22.212Z,22.18
2018-10-11T09:13:22.522Z,22.2
2018-10-11T09:14:22.495Z,22.29
2018-10-11T09:15:22.499Z,22.29
2018-10-11T09:16:22.503Z,22.35
2018-10-11T09:17:22.708Z,22.47
2018-10-11T09:18:22.271Z,22.53
2018-10-11T09:19:22.534Z,22.5
2018-10-11T09:20:22.550Z,22.57
2018-10-11T09:21:23.173Z,22.66
2018-10-11T09:22:22.563Z,22.84
2018-10-11T09:23:23.007Z,22.8
2018-10-11T09:24:22.587Z,22.84
2018-10-11T09:25:22.591Z,22.85
2018-10-11T09:26:22.602Z,22.9
2018-10-11T09:27:22.357Z,22.94
2018-10-11T09:28:22.721Z,23.06
2018-10-11T09:29:22.383Z,23.06
2018-10-11T09:30:22.537Z,23.08
2018-10-11T09:31:22.656Z,23.13
2018-10-11T09:32:22.659Z,23.23
2018-10-11T09:33:22.422Z,23.27
2018-10-11T09:34:22.682Z,23.31
2018-10-11T09:35:22.696Z,23.31
2018-10-11T09:36:22.933Z,23.36
2018-10-11T09:37:22.717Z,23.32
2018-10-11T09:38:22.729Z,23.5
2018-10-11T09:39:22.736Z,23.56
2018-10-11T09:40:22.768Z,23.55
2018-10-11T09:41:22.751Z,23.61
2018-10-11T09:42:22.761Z,23.74
2018-10-11T09:43:22.569Z,23.74
2018-10-11T09:44:22.529Z,23.88
2018-10-11T09:45:22.794Z,23.92
2018-10-11T09:46:22.800Z,23.92
2018-10-11T09:47:22.840Z,23.95
2018-10-11T09:48:22.818Z,23.93
2018-10-11T09:49:22.583Z,23.99
2018-10-11T09:50:22.844Z,24.1
2018-10-11T09:51:22.856Z,24.06
2018-10-11T09:52:22.880Z,24.13
2018-10-11T09:53:22.634Z,24.24
2018-10-11T09:54:23.137Z,24.32
2018-10-11T09:55:22.909Z,24.42
2018-10-11T09:56:22.924Z,24.3
2018-10-11T09:57:22.678Z,24.5
2018-10-11T09:58:22.990Z,24.53
2018-10-11T09:59:22.958Z,24.58
2018-10-11T10:00:22.961Z,24.66
2018-10-11T10:01:22.720Z,24.66
2018-10-11T10:02:22.985Z,24.68
2018-10-11T10:03:22.999Z,24.73
2018-10-11T10:04:23.006Z,24.84
2018-10-11T10:05:22.774Z,24.84
2018-10-11T10:06:22.771Z,24.98
2018-10-11T10:07:22.531Z,25.1
2018-10-11T10:08:23.054Z,25.38
2018-10-11T10:09:22.804Z,25.7
2018-10-11T10:10:23.072Z,25.93
2018-10-11T10:11:23.086Z,26.28
2018-10-11T10:12:23.093Z,26.62
2018-10-11T10:13:22.903Z,27
2018-10-11T10:14:23.120Z,27.37
2018-10-11T10:15:23.165Z,27.9
2018-10-11T10:16:22.895Z,28.27
2018-10-11T10:17:23.161Z,28.67
2018-10-11T10:18:23.166Z,29.12
2018-10-11T10:19:23.182Z,29.32
2018-10-11T10:20:23.198Z,29.81
2018-10-11T10:21:23.698Z,30.06
2018-10-11T10:22:23.237Z,30.32
2018-10-11T10:23:23.238Z,30.75
2018-10-11T10:24:22.750Z,31.07
2018-10-11T10:25:23.277Z,31.29
2018-10-11T10:26:23.032Z,31.39
2018-10-11T10:27:24.037Z,31.77
2018-10-11T10:28:23.377Z,31.94
2018-10-11T10:29:23.334Z,32.15
2018-10-11T10:30:23.348Z,32.41
2018-10-11T10:31:22.861Z,32.51
2018-10-11T10:32:23.130Z,32.85
2018-10-11T10:33:23.179Z,33.14
2018-10-11T10:34:23.166Z,33.49
2018-10-11T10:35:23.451Z,33.64
2018-10-11T10:36:23.460Z,33.67
2018-10-11T10:37:23.232Z,33.79
2018-10-11T10:38:24.510Z,33.96
2018-10-11T10:39:23.521Z,33.95
2018-10-11T10:40:23.286Z,34.14
2018-10-11T10:41:23.308Z,34.16
2018-10-11T10:42:23.583Z,34.39
2018-10-11T10:43:23.392Z,34.61
2018-10-11T10:44:23.361Z,34.95
2018-10-11T10:45:23.672Z,35.3
2018-10-11T10:46:23.402Z,35.49
2018-10-11T10:47:23.432Z,35.58
2018-10-11T10:48:23.854Z,35.66
2018-10-11T10:49:23.725Z,35.83
2018-10-11T10:50:23.490Z,35.89
2018-10-11T10:51:23.508Z,36.02
2018-10-11T10:52:23.279Z,36.37
2018-10-11T10:53:23.803Z,36.55
2018-10-11T10:54:24.116Z,36.67
2018-10-11T10:55:23.857Z,36.99
2018-10-11T10:56:23.871Z,37.29
2018-10-11T10:57:23.640Z,37.32
2018-10-11T10:58:23.461Z,37.39
2018-10-11T10:59:23.688Z,37.64
2018-10-11T11:00:23.718Z,37.86
2018-10-11T11:01:23.983Z,37.94
2018-10-11T11:02:24.009Z,38.15
2018-10-11T11:03:24.052Z,38.19
2018-10-11T11:04:24.055Z,38.34
2018-10-11T11:05:23.830Z,38.52
2018-10-11T11:06:23.610Z,38.55
2018-10-11T11:07:24.464Z,38.74
2018-10-11T11:08:24.170Z,38.87
2018-10-11T11:09:24.184Z,38.92
2018-10-11T11:10:23.944Z,39.17
2018-10-11T11:11:24.223Z,39.21
2018-10-11T11:12:24.244Z,39.21
2018-10-11T11:13:24.066Z,39.24
2018-10-11T11:14:24.307Z,39.21
2018-10-11T11:15:24.318Z,39.17
2018-10-11T11:16:24.094Z,39.43
2018-10-11T11:17:24.110Z,39.44
2018-10-11T11:18:24.394Z,39.43
2018-10-11T11:19:24.413Z,39.71
2018-10-11T11:20:24.441Z,39.93
2018-10-11T11:21:24.466Z,40
2018-10-11T11:22:24.493Z,40.14
2018-10-11T11:23:24.516Z,40.15
2018-10-11T11:24:24.295Z,40
2018-10-11T11:25:24.719Z,40.23
2018-10-11T11:26:24.581Z,40.16
2018-10-11T11:27:24.354Z,40.34
2018-10-11T11:28:24.785Z,40.43
2018-10-11T11:29:24.662Z,40.82
2018-10-11T11:30:24.180Z,40.97
2018-10-11T11:31:24.717Z,41.09
2018-10-11T11:32:24.240Z,41.22
2018-10-11T11:33:24.772Z,41.34
2018-10-11T11:34:24.546Z,41.28
2018-10-11T11:35:24.824Z,41.41
2018-10-11T11:36:24.342Z,41.29
2018-10-11T11:37:24.868Z,41.41
2018-10-11T11:38:24.933Z,41.63
2018-10-11T11:39:24.925Z,41.78
2018-10-11T11:40:24.446Z,41.7
2018-10-11T11:41:24.983Z,41.77
2018-10-11T11:42:24.757Z,41.92
2018-10-11T11:43:25.186Z,42.07
2018-10-11T11:44:24.808Z,42.13
2018-10-11T11:45:24.828Z,42.14
2018-10-11T11:46:25.107Z,42.26
2018-10-11T11:47:24.883Z,42.29
2018-10-11T11:48:25.163Z,42.26
2018-10-11T11:49:24.946Z,42.41
2018-10-11T11:50:25.018Z,42.28
2018-10-11T11:51:24.993Z,42.28
2018-10-11T11:52:25.266Z,42.32
2018-10-11T11:53:25.284Z,42.43
2018-10-11T11:54:25.322Z,42.29
2018-10-11T11:55:25.092Z,42.28
2018-10-11T11:56:25.369Z,42.44
2018-10-11T11:57:25.143Z,42.2
2018-10-11T11:58:25.217Z,42.19
2018-10-11T11:59:25.199Z,42.17
2018-10-11T12:00:25.477Z,41.98
2018-10-11T12:01:25.503Z,41.62
2018-10-11T12:02:25.527Z,41.74
2018-10-11T12:03:25.556Z,41.88
2018-10-11T12:04:25.597Z,41.95
2018-10-11T12:05:25.365Z,41.83
2018-10-11T12:06:25.396Z,42.2
2018-10-11T12:07:25.679Z,42.01
2018-10-11T12:08:25.448Z,41.98
2018-10-11T12:09:25.726Z,41.82
2018-10-11T12:10:26.003Z,41.77
2018-10-11T12:11:25.530Z,41.57
2018-10-11T12:12:25.556Z,41.78
2018-10-11T12:13:25.987Z,42.1
2018-10-11T12:14:25.863Z,42.09
2018-10-11T12:15:25.892Z,42.43
2018-10-11T12:16:25.684Z,42.81
2018-10-11T12:17:25.688Z,42.99
2018-10-11T12:18:26.022Z,43
2018-10-11T12:19:26.002Z,43.27
2018-10-11T12:20:25.778Z,43.49
2018-10-11T12:21:25.778Z,43.49
2018-10-11T12:22:26.077Z,43.68
2018-10-11T12:23:26.145Z,43.73
2018-10-11T12:24:26.112Z,43.83
2018-10-11T12:25:25.890Z,43.67
2018-10-11T12:26:25.950Z,43.73
2018-10-11T12:27:26.202Z,43.53
2018-10-11T12:28:26.502Z,43.39
2018-10-11T12:29:26.257Z,43.33
2018-10-11T12:30:26.036Z,43.48
2018-10-11T12:31:26.320Z,43.46
2018-10-11T12:32:26.353Z,43.6
2018-10-11T12:33:26.376Z,43.68
2018-10-11T12:34:26.407Z,43.65
2018-10-11T12:35:26.431Z,43.64
2018-10-11T12:36:26.572Z,43.57
2018-10-11T12:37:26.483Z,43.67
2018-10-11T12:38:26.663Z,43.61
2018-10-11T12:39:26.540Z,43.58
2018-10-11T12:40:27.174Z,43.64
2018-10-11T12:41:26.341Z,43.73
2018-10-11T12:42:26.820Z,43.77
2018-10-11T12:43:26.403Z,43.74
2018-10-11T12:44:26.678Z,43.65
2018-10-11T12:45:27.094Z,43.67
2018-10-11T12:46:26.738Z,43.87
2018-10-11T12:47:26.503Z,43.95
2018-10-11T12:48:26.587Z,43.94
2018-10-11T12:49:27.312Z,44.13
2018-10-11T12:50:26.584Z,44.18
2018-10-11T12:51:26.867Z,44.15
2018-10-11T12:52:26.894Z,44.52
2018-10-11T12:53:26.670Z,44.68
2018-10-11T12:54:26.698Z,44.61
2018-10-11T12:55:26.975Z,44.4
2018-10-11T12:56:27.470Z,44.4